Time;durP1;ratioP1;P1;durP2;ratioP2;P2;SDS_P1;SDS_P2;PMS_P1;PMS_P2;Temp;Humidity;BMP_temperature;BMP_pressure;BME280_temperature;BME280_humidity;BME280_pressure;Samples;Min_cycle;Max_cycle;Signal;HPM_P1;HPM_P2
2023/09/04 05:04:44;;;;;;;;;;;;;;;20.15;100.00;100705.83;1817710;78;20160;-71
2023/09/04 05:07:07;;;;;;;;;;;;;;;20.36;100.00;100706.64;1818842;78;20127;-72
2023/09/04 05:37:28;;;;;;;;;;;;;;;22.56;81.34;100718.77;1779137;80;20143;-71
2023/09/04 05:39:55;;;;;;;;;;;;;;;22.37;80.96;100724.17;1783390;80;20198;-75
2023/09/04 06:00:08;;;;;;;;;;;;;;;22.73;79.47;100741.55;1745242;81;20142;-74
2023/09/04 06:13:06;;;;;;;;;;;;;;;22.62;81.13;100743.91;1721269;82;20526;-72
2023/09/04 06:15:31;;;;;;;;;;;;;;;22.75;80.70;100746.23;1699552;82;20178;-73
2023/09/04 06:17:59;;;;;;;;;;;;;;;22.85;79.43;100745.70;1746208;81;20124;-70
2023/09/04 06:20:28;;;;;;;;;;;;;;;22.96;79.23;100754.80;1740303;81;20936;-73
2023/09/04 06:23:03;;;;;;;;;;;;;;;23.05;79.05;100754.41;1739072;81;20143;-71
2023/09/04 06:28:05;;;;;;;;;;;;;;;23.37;77.55;100743.27;1737682;82;20219;-71
2023/09/04 06:30:42;;;;;;;;;;;;;;;;;;;;;
2023/09/04 06:33:04;;;;;;;;;;;;;;;23.43;75.50;100757.30;1734796;82;20791;-71
2023/09/04 06:35:34;;;;;;;;;;;;;;;23.41;74.82;100748.14;1737237;81;20204;-72
2023/09/04 06:38:00;;;;;;;;;;;;;;;23.37;74.12;100752.08;1735860;81;20572;-75
2023/09/04 06:40:28;;;;;;;;;;;;;;;23.21;73.28;100748.76;1740985;82;20119;-72
2023/09/04 06:42:55;;;;;;;;;;;;;;;23.12;74.30;100747.02;1741615;81;20105;-72
2023/09/04 06:45:22;;;;;;;;;;;;;;;23.12;75.07;100746.19;1745800;81;20107;-73
2023/09/04 06:47:50;;;;;;;;;;;;;;;23.17;74.92;100747.41;1749871;81;20429;-72
2023/09/04 06:50:18;;;;;;;;;;;;;;;23.25;74.73;100746.64;1740418;81;20147;-72
2023/09/04 06:52:44;;;;;;;;;;;;;;;23.28;74.31;100747.67;1733219;81;20215;-72
2023/09/04 07:10:23;;;;;;;;;;;;;;;24.23;71.59;100757.63;1727693;82;20166;-72
2023/09/04 07:12:53;;;;;;;;;;;;;;;24.34;71.00;100750.76;1742277;82;20562;-72
2023/09/04 07:17:54;;;;;;;;;;;;;;;24.61;69.64;100755.05;1735329;81;20198;-72
2023/09/04 07:20:21;;;;;;;;;;;;;;;24.74;69.64;100764.77;1735556;81;20168;-73
2023/09/04 07:22:47;;;;;;;;;;;;;;;24.87;68.08;100766.47;1744671;82;20487;-71
2023/09/04 07:25:14;;;;;;;;;;;;;;;24.90;67.10;100767.48;1740921;82;20159;-71
2023/09/04 07:27:40;;;;;;;;;;;;;;;25.04;66.87;100770.56;1739150;82;20465;-71
2023/09/04 07:30:08;;;;;;;;;;;;;;;25.17;66.10;100763.78;1737195;81;20139;-71
2023/09/04 07:32:35;;;;;;;;;;;;;;;25.32;64.76;100772.46;1736910;81;20150;-71
2023/09/04 07:35:03;;;;;;;;;;;;;;;25.35;63.40;100764.98;1737270;82;20138;-70
2023/09/04 07:37:30;;;;;;;;;;;;;;;25.35;62.97;100764.14;1739586;82;20269;-72
2023/09/04 07:39:56;;;;;;;;;;;;;;;25.38;63.04;100766.48;1738195;82;20637;-73
2023/09/04 07:42:23;;;;;;;;;;;;;;;25.42;62.48;100767.83;1736494;81;20165;-74
2023/09/04 07:44:49;;;;;;;;;;;;;;;25.43;62.56;100766.83;1739012;82;20109;-75
2023/09/04 07:47:17;;;;;;;;;;;;;;;25.38;62.40;100769.15;1739904;82;20126;-76
2023/09/04 07:49:44;;;;;;;;;;;;;;;25.32;62.97;100772.46;1739559;82;20151;-76
2023/09/04 07:57:15;;;;;;;;;;;;;;;25.48;62.92;100780.00;1731868;81;20456;-73
2023/09/04 07:59:42;;;;;;;;;;;;;;;25.53;62.19;100776.34;1743639;82;20158;-76
2023/09/04 08:02:09;;;;;;;;;;;;;;;25.43;60.83;100778.33;1729135;81;20125;-72
2023/09/04 08:04:36;;;;;;;;;;;;;;;25.41;60.13;100791.48;1726741;82;20425;-73
2023/09/04 08:07:02;;;;;;;;;;;;;;;25.36;59.66;100784.47;1707855;82;20211;-72
2023/09/04 08:09:37;;;;;;;;;;;;;;;25.30;59.31;100783.78;1728300;82;20591;-71
2023/09/04 08:12:05;;;;;;;;;;;;;;;25.14;58.90;100776.11;1718395;82;20471;-74
2023/09/04 08:14:35;;;;;;;;;;;;;;;25.02;59.69;100797.88;1737521;82;20104;-77
2023/09/04 08:17:00;;;;;;;;;;;;;;;24.91;60.00;100785.63;1708236;82;20167;-75
2023/09/04 08:19:27;;;;;;;;;;;;;;;24.79;59.98;100790.94;1739914;81;20124;-74
2023/09/04 08:21:53;;;;;;;;;;;;;;;24.70;60.77;100790.05;1742352;82;20379;-74
2023/09/04 08:24:20;;;;;;;;;;;;;;;24.71;60.91;100794.39;1738661;81;20170;-75
2023/09/04 08:26:46;;;;;;;;;;;;;;;24.79;60.82;100787.74;1735010;82;20254;-73
2023/09/04 08:29:13;;;;;;;;;;;;;;;24.93;61.23;100789.81;1740825;81;20149;-75
2023/09/04 08:31:40;;;;;;;;;;;;;;;25.10;59.86;100785.42;1733174;81;20210;-76
2023/09/04 08:34:07;;;;;;;;;;;;;;;25.16;58.35;100786.11;1709287;82;20167;-76
2023/09/04 10:19:04;;;;;;;;;;;;;;;23.74;60.93;100786.52;1746913;82;20142;-70
2023/09/04 10:21:33;;;;;;;;;;;;;;;23.68;60.03;100792.45;1747957;81;20173;-69
2023/09/04 10:24:02;;;;;;;;;;;;;;;23.66;59.72;100800.23;1731056;82;20134;-68
2023/09/04 10:26:35;;;;;;;;;;;;;;;23.67;58.81;100792.59;1733735;82;20486;-71
2023/09/04 10:29:04;;;;;;;;;;;;;;;23.68;59.16;100788.95;1712411;83;20109;-71
2023/09/04 10:31:34;;;;;;;;;;;;;;;23.70;59.43;100794.95;1743481;81;21076;-73
2023/09/04 10:34:01;;;;;;;;;;;;;;;23.71;58.58;100795.30;1739958;82;20231;-71
2023/09/04 10:36:30;;;;;;;;;;;;;;;23.69;57.42;100794.13;1705990;83;20189;-71
2023/09/04 10:38:57;;;;;;;;;;;;;;;23.65;57.88;100788.76;1719132;83;20275;-73
2023/09/04 10:41:25;;;;;;;;;;;;;;;23.66;58.17;100787.77;1730545;82;20157;-72
2023/09/04 10:43:51;;;;;;;;;;;;;;;23.68;58.74;100787.13;1734908;81;20142;-71
2023/09/04 10:46:19;;;;;;;;;;;;;;;23.68;58.32;100785.80;1739177;82;20158;-71
2023/09/04 10:48:47;;;;;;;;;;;;;;;23.67;58.33;100773.98;1742557;81;20158;-71
2023/09/04 10:51:37;;;;;;;;;;;;;;;23.63;58.16;100784.09;1739224;82;20111;-71
2023/09/04 10:54:16;;;;;;;;;;;;;;;23.59;58.12;100780.09;1742838;81;20170;-71
2023/09/04 10:57:00;;;;;;;;;;;;;;;23.56;58.82;100779.06;1746531;82;20091;-71
2023/09/04 10:59:27;;;;;;;;;;;;;;;23.63;59.51;100788.08;1641141;84;20170;-71
2023/09/04 11:20:26;;;;;;;;;;;;;;;23.79;57.42;100778.09;1763558;81;20411;-72
2023/09/04 11:22:54;;;;;;;;;;;;;;;23.83;58.14;100787.44;1750291;81;20427;-73
2023/09/04 11:25:21;;;;;;;;;;;;;;;23.92;57.66;100789.18;1761216;81;20142;-73
2023/09/04 11:27:48;;;;;;;;;;;;;;;23.96;57.05;100775.91;1718429;81;20491;-74
2023/09/04 11:30:16;;;;;;;;;;;;;;;24.02;57.28;100773.10;1750868;81;20599;-73
2023/09/04 11:32:42;;;;;;;;;;;;;;;24.12;56.71;100779.17;1752067;81;20384;-72
2023/09/04 11:35:13;;;;;;;;;;;;;;;24.24;56.64;100780.59;1753657;80;20132;-73
2023/09/04 11:37:48;;;;;;;;;;;;;;;24.33;56.02;100781.03;1750585;81;20132;-73
2023/09/04 11:40:18;;;;;;;;;;;;;;;24.37;56.15;100773.07;1751856;81;20183;-71
2023/09/04 11:42:46;;;;;;;;;;;;;;;24.44;56.53;100779.91;1752358;81;20177;-74
2023/09/04 11:45:12;;;;;;;;;;;;;;;24.49;55.55;100785.10;1756142;81;20208;-77
2023/09/04 11:47:41;;;;;;;;;;;;;;;24.53;55.11;100774.47;1758801;81;20144;-76
2023/09/04 11:50:14;;;;;;;;;;;;;;;24.58;54.70;100780.16;1680222;81;20578;-75
2023/09/04 11:52:46;;;;;;;;;;;;;;;24.64;55.07;100778.70;1757942;78;20518;-76
2023/09/04 11:55:13;;;;;;;;;;;;;;;24.73;55.60;100783.58;1750791;78;20167;-75
2023/09/04 11:57:42;;;;;;;;;;;;;;;24.75;55.51;100791.75;1758044;81;20487;-72
2023/09/04 12:00:09;;;;;;;;;;;;;;;24.76;56.07;100792.58;1766200;81;20168;-74
2023/09/04 12:02:42;;;;;;;;;;;;;;;24.78;56.95;100784.77;1759279;81;20139;-75
2023/09/04 12:05:07;;;;;;;;;;;;;;;24.83;57.24;100779.77;1724252;81;20129;-76
2023/09/04 12:07:33;;;;;;;;;;;;;;;24.87;57.05;100786.95;1762654;81;20610;-74
2023/09/04 12:10:00;;;;;;;;;;;;;;;24.80;56.87;100781.92;1739761;81;20159;-79
2023/09/04 12:12:27;;;;;;;;;;;;;;;24.72;56.98;100786.73;1719985;81;20118;-76
2023/09/04 12:14:54;;;;;;;;;;;;;;;24.59;57.12;100789.83;1747670;82;20459;-78
2023/09/04 12:17:20;;;;;;;;;;;;;;;24.50;57.64;100795.25;1748067;82;20173;-73
2023/09/04 12:19:48;;;;;;;;;;;;;;;24.40;57.73;100790.03;1753813;81;20162;-73
2023/09/04 12:22:16;;;;;;;;;;;;;;;24.30;58.00;100792.48;1752046;81;20224;-72
2023/09/04 12:25:07;;;;;;;;;;;;;;;24.20;58.39;100789.88;1751208;81;20137;-77
